createdAt,value
2024-03-03T00:11:36.913Z,56.73
2024-03-03T00:14:16.249Z,57.21
2024-03-03T00:16:47.615Z,57.31
2024-03-03T00:19:17.335Z,57.65
2024-03-03T00:22:02.923Z,57.61
2024-03-03T00:24:43.918Z,57.26
2024-03-03T00:27:21.318Z,57.49
2024-03-03T00:29:49.747Z,57.50
2024-03-03T00:32:21.073Z,57.28
2024-03-03T00:34:48.907Z,57.01
2024-03-03T00:37:19.799Z,57.34
2024-03-03T00:39:48.866Z,57.34
2024-03-03T00:42:19.023Z,57.30
2024-03-03T00:44:48.644Z,57.37
2024-03-03T00:47:18.053Z,57.16
2024-03-03T00:49:53.050Z,57.19
2024-03-03T00:52:21.106Z,57.30
2024-03-03T00:54:50.600Z,57.36
2024-03-03T00:57:21.070Z,57.09
2024-03-03T00:59:55.587Z,57.11
2024-03-03T01:02:27.560Z,56.79
2024-03-03T01:05:04.749Z,57.09
2024-03-03T01:07:39.583Z,56.87
2024-03-03T01:10:10.582Z,56.71
2024-03-03T01:12:41.657Z,56.84
2024-03-03T01:15:11.669Z,57.00
2024-03-03T01:17:43.769Z,56.99
2024-03-03T01:20:19.971Z,56.96
2024-03-03T01:23:07.867Z,56.71
2024-03-03T01:25:41.538Z,56.92
2024-03-03T01:28:17.019Z,56.90
2024-03-03T01:30:55.684Z,56.95
2024-03-03T01:33:33.028Z,56.73
2024-03-03T01:36:08.850Z,56.91
2024-03-03T01:38:39.666Z,56.82
2024-03-03T01:41:12.697Z,56.92
2024-03-03T01:43:51.551Z,56.64
2024-03-03T01:49:37.433Z,56.76
2024-03-03T01:52:21.810Z,56.79
2024-03-03T01:54:56.308Z,56.97
2024-03-03T01:57:25.456Z,56.75
2024-03-03T02:00:09.493Z,56.69
2024-03-03T02:02:52.212Z,56.93
2024-03-03T02:05:24.918Z,57.01
2024-03-03T02:08:04.878Z,57.00
2024-03-03T02:11:10.994Z,56.97
2024-03-03T02:14:03.639Z,56.71
2024-03-03T02:19:43.169Z,56.93
2024-03-03T02:22:25.658Z,56.89
2024-03-03T02:25:11.611Z,57.05
2024-03-03T02:27:51.188Z,57.05
2024-03-03T02:30:38.016Z,57.30
2024-03-03T02:33:17.163Z,57.40
2024-03-03T02:36:03.065Z,57.46
2024-03-03T02:39:28.027Z,57.24
2024-03-03T02:42:27.014Z,57.18
2024-03-03T02:45:03.844Z,57.25
2024-03-03T02:47:36.705Z,56.96
2024-03-03T02:50:14.674Z,57.09
2024-03-03T03:02:45.578Z,57.00
2024-03-03T03:05:54.876Z,57.32
2024-03-03T03:12:02.877Z,57.43
2024-03-03T03:17:43.135Z,57.67
2024-03-03T03:24:15.760Z,57.65
2024-03-03T03:26:58.116Z,57.16
2024-03-03T03:29:56.789Z,57.29
2024-03-03T03:32:41.168Z,57.79
2024-03-03T03:35:47.377Z,57.45
2024-03-03T03:42:02.556Z,57.20
2024-03-03T03:44:37.689Z,57.82
2024-03-03T03:54:38.960Z,57.31
2024-03-03T03:57:20.234Z,58.00
2024-03-03T03:59:56.977Z,58.13
2024-03-03T04:10:41.921Z,58.63
2024-03-03T04:14:01.576Z,57.93
2024-03-03T04:52:47.909Z,59.81
2024-03-03T04:59:56.838Z,58.48
2024-03-03T05:02:42.755Z,60.05
2024-03-03T05:24:45.917Z,59.45
2024-03-03T05:27:48.375Z,59.60
2024-03-03T05:35:00.785Z,59.95
2024-03-03T05:37:35.942Z,59.63
2024-03-03T05:41:41.587Z,58.92
2024-03-03T05:45:13.082Z,59.49
2024-03-03T05:48:18.843Z,59.03
2024-03-03T06:13:00.245Z,59.16
2024-03-03T06:35:05.553Z,58.88
2024-03-03T06:57:43.043Z,58.43
2024-03-03T07:19:44.903Z,57.42
2024-03-03T07:22:20.587Z,56.85
2024-03-03T07:24:58.313Z,56.35
2024-03-03T07:27:33.442Z,56.49
2024-03-03T07:30:18.055Z,56.25
2024-03-03T07:33:24.626Z,56.50
2024-03-03T07:36:07.542Z,55.98
2024-03-03T07:38:47.155Z,55.83
2024-03-03T07:41:29.380Z,55.60
2024-03-03T07:47:02.562Z,54.99
2024-03-03T07:49:45.982Z,55.22
2024-03-03T07:52:19.900Z,54.83
2024-03-03T07:54:51.633Z,54.81
2024-03-03T08:08:29.786Z,55.51
2024-03-03T08:15:26.725Z,54.88
2024-03-03T08:21:40.886Z,54.55
2024-03-03T08:24:20.272Z,54.35
2024-03-03T08:29:50.674Z,54.31
2024-03-03T08:32:26.430Z,53.60
2024-03-03T08:35:03.641Z,54.05
2024-03-03T08:37:56.212Z,53.31
2024-03-03T08:41:04.785Z,53.12
2024-03-03T08:43:43.003Z,52.83
2024-03-03T08:46:48.009Z,54.41
2024-03-03T08:56:36.578Z,52.76
2024-03-03T09:25:47.271Z,51.93
2024-03-03T09:28:14.196Z,43.36
2024-03-03T09:30:40.936Z,42.71
2024-03-03T09:33:09.837Z,40.40
2024-03-03T09:35:39.121Z,38.95
2024-03-03T09:38:06.373Z,38.03
2024-03-03T09:40:36.089Z,37.90
2024-03-03T09:43:09.159Z,36.79
2024-03-03T09:45:36.645Z,34.67
2024-03-03T09:48:04.172Z,33.95
2024-03-03T09:50:31.689Z,32.94
2024-03-03T09:53:01.904Z,32.17
2024-03-03T09:55:31.418Z,31.29
2024-03-03T09:57:58.511Z,31.35
2024-03-03T10:00:25.539Z,29.95
2024-03-03T10:02:54.596Z,29.14
2024-03-03T10:05:22.902Z,28.75
2024-03-03T10:07:54.103Z,31.45
2024-03-03T10:10:28.029Z,31.52
2024-03-03T10:12:56.297Z,27.63
2024-03-03T10:15:24.308Z,27.62
2024-03-03T10:17:51.855Z,26.96
2024-03-03T10:20:18.735Z,27.46
2024-03-03T10:22:45.516Z,26.62
2024-03-03T10:25:17.305Z,29.06
2024-03-03T10:27:48.741Z,28.93
2024-03-03T10:30:21.609Z,28.55
2024-03-03T10:32:49.381Z,25.90
2024-03-03T10:35:17.729Z,25.22
2024-03-03T10:37:48.963Z,28.32
2024-03-03T10:40:16.512Z,24.80
2024-03-03T10:42:43.414Z,25.29
2024-03-03T10:45:10.929Z,24.87
2024-03-03T10:47:38.767Z,24.98
2024-03-03T10:50:09.998Z,26.94
2024-03-03T10:52:40.931Z,26.29
2024-03-03T10:55:10.889Z,25.64
2024-03-03T10:57:37.657Z,24.34
2024-03-03T11:00:07.787Z,25.57
2024-03-03T11:02:35.507Z,24.89
2024-03-03T11:05:02.609Z,24.83
2024-03-03T11:07:30.903Z,25.27
2024-03-03T11:09:58.898Z,25.78
2024-03-03T11:12:31.834Z,27.54
2024-03-03T11:15:02.268Z,25.75
2024-03-03T11:17:33.426Z,26.05
2024-03-03T11:20:04.510Z,26.16
2024-03-03T11:22:37.186Z,26.69
2024-03-03T11:25:06.466Z,25.52
2024-03-03T11:27:38.479Z,27.38
2024-03-03T11:30:06.938Z,25.49
2024-03-03T11:32:36.389Z,25.64
2024-03-03T11:35:04.938Z,26.29
2024-03-03T11:37:33.296Z,25.98
2024-03-03T11:40:01.334Z,26.35
2024-03-03T11:42:34.172Z,26.55
2024-03-03T11:45:01.885Z,26.37
2024-03-03T11:47:40.548Z,27.88
2024-03-03T11:50:18.830Z,28.76
2024-03-03T11:52:49.880Z,27.58
2024-03-03T11:55:25.227Z,28.50
2024-03-03T11:57:55.068Z,26.78
2024-03-03T12:00:25.810Z,27.34
2024-03-03T12:02:54.013Z,28.27
2024-03-03T12:05:21.159Z,28.44
2024-03-03T12:07:50.083Z,28.60
2024-03-03T12:10:22.172Z,29.49
2024-03-03T12:12:50.982Z,29.92
2024-03-03T12:15:19.599Z,30.03
2024-03-03T12:17:49.619Z,30.43
2024-03-03T12:20:18.451Z,30.84
2024-03-03T12:22:46.883Z,31.70
2024-03-03T12:25:15.731Z,32.23
2024-03-03T12:28:09.171Z,32.99
2024-03-03T12:30:37.275Z,33.42
2024-03-03T12:33:07.632Z,33.88
2024-03-03T12:35:35.715Z,34.42
2024-03-03T12:38:03.459Z,34.81
2024-03-03T12:40:30.368Z,35.35
2024-03-03T12:42:57.407Z,35.43
2024-03-03T12:45:25.602Z,35.88
2024-03-03T12:47:52.504Z,35.78
2024-03-03T12:50:20.483Z,36.21
2024-03-03T12:52:48.920Z,36.77
2024-03-03T12:55:17.157Z,37.05
2024-03-03T12:57:45.091Z,37.49
2024-03-03T13:00:16.156Z,38.02
2024-03-03T13:02:44.433Z,38.02
2024-03-03T13:05:13.682Z,38.26
2024-03-03T13:07:50.771Z,38.34
2024-03-03T13:10:19.304Z,39.06
2024-03-03T13:12:47.411Z,38.83
2024-03-03T13:15:14.367Z,39.16
2024-03-03T13:17:41.121Z,39.52
2024-03-03T13:20:13.589Z,39.95
2024-03-03T13:22:40.643Z,40.49
2024-03-03T13:25:10.213Z,40.15
2024-03-03T13:27:36.868Z,39.14
2024-03-03T13:30:08.237Z,41.07
2024-03-03T13:32:35.276Z,41.64
2024-03-03T13:35:02.099Z,42.05
2024-03-03T13:37:29.548Z,42.32
2024-03-03T13:39:56.408Z,42.88
2024-03-03T13:42:23.214Z,43.13
2024-03-03T13:44:50.135Z,43.56
2024-03-03T13:47:18.173Z,43.93
2024-03-03T13:49:44.960Z,43.85
2024-03-03T13:52:14.251Z,44.41
2024-03-03T13:54:41.833Z,44.80
2024-03-03T13:57:08.826Z,44.54
2024-03-03T13:59:36.483Z,45.00
2024-03-03T14:02:03.861Z,45.03
2024-03-03T14:04:30.791Z,45.30
2024-03-03T14:06:59.860Z,45.52
2024-03-03T14:09:26.719Z,46.02
2024-03-03T14:11:53.435Z,46.24
2024-03-03T14:14:20.113Z,46.21
2024-03-03T14:16:47.016Z,46.45
2024-03-03T14:19:13.768Z,46.58
2024-03-03T14:21:40.518Z,46.52
2024-03-03T14:24:07.708Z,46.77
2024-03-03T14:26:36.890Z,47.03
2024-03-03T14:29:05.473Z,47.15
2024-03-03T14:31:32.275Z,47.24
2024-03-03T14:33:59.013Z,47.01
2024-03-03T14:36:25.905Z,47.67
2024-03-03T14:38:52.709Z,47.68
2024-03-03T14:41:19.421Z,47.73
2024-03-03T14:43:46.830Z,47.79
2024-03-03T14:46:14.268Z,47.44
2024-03-03T14:48:41.083Z,48.24
2024-03-03T14:51:07.910Z,48.17
2024-03-03T14:53:36.320Z,49.04
2024-03-03T14:56:05.354Z,48.84
2024-03-03T14:58:32.515Z,48.77
2024-03-03T15:00:59.395Z,48.99
2024-03-03T15:15:47.147Z,49.73
2024-03-03T15:39:21.056Z,49.77
2024-03-03T15:41:47.798Z,49.83
2024-03-03T15:44:14.509Z,50.04
2024-03-03T15:46:41.227Z,50.03
2024-03-03T15:49:08.069Z,49.57
2024-03-03T15:51:38.952Z,50.05
2024-03-03T15:54:07.689Z,50.15
2024-03-03T15:56:34.691Z,50.25
2024-03-03T15:59:01.879Z,50.38
2024-03-03T16:01:30.304Z,50.77
2024-03-03T16:03:57.150Z,50.50
2024-03-03T16:06:23.943Z,50.27
2024-03-03T16:08:52.585Z,50.18
2024-03-03T16:11:19.826Z,50.29
2024-03-03T16:13:46.588Z,50.77
2024-03-03T16:16:13.942Z,51.19
2024-03-03T16:18:40.656Z,50.96
2024-03-03T16:21:08.231Z,50.55
2024-03-03T16:23:35.023Z,50.87
2024-03-03T16:26:01.949Z,50.80
2024-03-03T16:28:30.509Z,50.73
2024-03-03T16:30:57.370Z,50.76
2024-03-03T16:33:24.499Z,50.67
2024-03-03T16:35:51.308Z,50.88
2024-03-03T16:38:18.063Z,50.82
2024-03-03T16:40:45.866Z,50.74
2024-03-03T16:43:12.732Z,50.98
2024-03-03T16:45:39.834Z,50.94
2024-03-03T16:48:07.295Z,51.27
2024-03-03T16:50:35.693Z,51.25
2024-03-03T16:53:02.460Z,51.25
2024-03-03T16:55:29.740Z,50.93
2024-03-03T16:58:00.385Z,50.94
2024-03-03T17:00:27.691Z,51.13
2024-03-03T17:02:54.636Z,50.71
2024-03-03T17:05:22.094Z,51.09
2024-03-03T17:07:50.053Z,51.19
2024-03-03T17:10:17.114Z,50.93
2024-03-03T17:12:43.907Z,50.85
2024-03-03T17:15:12.379Z,51.00
2024-03-03T17:17:40.630Z,51.16
2024-03-03T17:20:11.072Z,51.19
2024-03-03T17:22:38.376Z,50.91
2024-03-03T17:25:06.374Z,50.52
2024-03-03T17:27:33.150Z,50.50
2024-03-03T17:29:59.871Z,50.84
2024-03-03T17:32:26.964Z,50.70
2024-03-03T17:34:53.743Z,50.49
2024-03-03T17:37:20.524Z,50.68
2024-03-03T17:39:47.656Z,50.71
2024-03-03T17:42:14.438Z,50.87
2024-03-03T17:44:41.267Z,50.85
2024-03-03T17:47:07.984Z,50.72
2024-03-03T17:49:35.219Z,50.91
2024-03-03T17:52:02.114Z,50.86
2024-03-03T17:54:29.012Z,50.85
2024-03-03T17:56:56.119Z,51.02
2024-03-03T17:59:23.254Z,50.62
2024-03-03T18:01:50.256Z,50.68
2024-03-03T18:04:17.260Z,50.45
2024-03-03T18:06:44.598Z,51.14
2024-03-03T18:09:12.764Z,50.96
2024-03-03T18:11:39.642Z,50.93
2024-03-03T18:14:06.410Z,51.01
2024-03-03T18:16:33.900Z,50.94
2024-03-03T18:19:00.741Z,51.39
2024-03-03T18:21:27.596Z,50.86
2024-03-03T18:23:54.786Z,50.98
2024-03-03T18:26:21.614Z,51.11
2024-03-03T18:28:49.847Z,50.94
2024-03-03T18:31:17.365Z,51.17
2024-03-03T18:33:44.385Z,51.53
2024-03-03T18:36:15.082Z,51.43
2024-03-03T18:38:42.017Z,51.33
2024-03-03T18:41:09.662Z,51.34
2024-03-03T18:43:36.861Z,51.61
2024-03-03T18:46:06.024Z,51.53
2024-03-03T18:48:32.830Z,51.90
2024-03-03T18:50:59.987Z,51.42
2024-03-03T18:53:26.887Z,51.42
2024-03-03T18:55:53.655Z,51.87
2024-03-03T18:58:20.547Z,52.06
2024-03-03T19:00:49.171Z,52.18
2024-03-03T19:03:16.140Z,52.02
2024-03-03T19:05:42.956Z,52.24
2024-03-03T19:08:09.721Z,52.50
2024-03-03T19:10:36.844Z,52.42
2024-03-03T19:13:04.813Z,52.53
2024-03-03T19:15:31.613Z,52.29
2024-03-03T19:17:58.658Z,52.75
2024-03-03T19:20:28.589Z,52.10
2024-03-03T19:22:59.753Z,52.50
2024-03-03T19:25:29.186Z,52.33
2024-03-03T19:27:56.346Z,52.73
2024-03-03T19:30:23.157Z,52.31
2024-03-03T19:32:49.928Z,52.69
2024-03-03T19:35:20.913Z,52.65
2024-03-03T19:37:47.653Z,52.27
2024-03-03T19:40:14.679Z,52.72
2024-03-03T19:42:41.602Z,52.66
2024-03-03T19:45:12.222Z,52.79
2024-03-03T19:47:39.199Z,52.32
2024-03-03T19:50:07.818Z,52.65
2024-03-03T19:52:34.929Z,52.69
2024-03-03T19:55:01.878Z,52.79
2024-03-03T19:57:31.221Z,52.74
2024-03-03T19:59:58.292Z,52.49
2024-03-03T20:02:28.209Z,52.33
2024-03-03T20:04:55.012Z,52.75
2024-03-03T20:07:21.802Z,52.30
2024-03-03T20:09:48.604Z,52.53
2024-03-03T20:12:15.423Z,52.59
2024-03-03T20:18:28.899Z,52.22
2024-03-03T20:20:55.657Z,52.67
2024-03-03T20:23:22.764Z,52.70
2024-03-03T20:25:49.615Z,52.51
2024-03-03T20:28:16.756Z,52.85
2024-03-03T20:30:57.001Z,51.82
2024-03-03T20:33:23.868Z,52.86
2024-03-03T20:36:43.200Z,51.94
2024-03-03T20:39:28.222Z,53.24
2024-03-03T20:41:57.212Z,52.83
2024-03-03T20:44:24.015Z,52.90
2024-03-03T20:46:52.049Z,53.08
2024-03-03T20:49:21.427Z,53.00
2024-03-03T20:51:48.409Z,53.11
2024-03-03T20:54:16.539Z,53.31
2024-03-03T20:56:44.495Z,53.14
2024-03-03T20:59:11.472Z,53.07
2024-03-03T21:01:38.387Z,53.43
2024-03-03T21:04:05.521Z,52.93
2024-03-03T21:06:32.366Z,53.31
2024-03-03T21:08:59.700Z,53.36
2024-03-03T21:11:27.054Z,53.52
2024-03-03T21:13:58.751Z,53.73
2024-03-03T21:16:26.155Z,54.28
2024-03-03T21:18:52.929Z,54.15
2024-03-03T21:21:19.852Z,53.77
2024-03-03T21:23:46.592Z,53.89
2024-03-03T21:26:13.505Z,53.71
2024-03-03T21:28:40.456Z,53.73
2024-03-03T21:31:07.258Z,54.08
2024-03-03T21:33:35.662Z,53.95
2024-03-03T21:36:02.502Z,53.90
2024-03-03T21:38:29.491Z,54.62
2024-03-03T21:40:59.309Z,54.19
2024-03-03T21:43:27.932Z,54.91
2024-03-03T21:45:54.680Z,54.53
2024-03-03T21:48:21.644Z,54.38
2024-03-03T21:50:48.509Z,54.35
2024-03-03T21:53:15.226Z,54.35
2024-03-03T21:55:43.482Z,54.06
2024-03-03T21:58:11.580Z,54.46
2024-03-03T22:00:38.634Z,54.43
2024-03-03T22:03:05.522Z,54.70
2024-03-03T22:05:32.357Z,54.83
2024-03-03T22:07:59.151Z,54.85
2024-03-03T22:10:26.403Z,55.14
2024-03-03T22:12:53.219Z,55.37
2024-03-03T22:15:22.246Z,55.58
2024-03-03T22:17:49.064Z,54.81
2024-03-03T22:20:15.905Z,55.72
2024-03-03T22:22:42.686Z,56.35
2024-03-03T22:25:09.612Z,56.50
2024-03-03T22:27:37.318Z,55.92
2024-03-03T22:30:05.047Z,56.93
2024-03-03T22:32:36.320Z,56.75
2024-03-03T22:35:04.566Z,57.20
2024-03-03T22:37:37.817Z,58.81
2024-03-03T22:40:12.091Z,57.44
2024-03-03T22:42:40.428Z,57.53
2024-03-03T22:45:07.841Z,57.76
2024-03-03T22:47:45.086Z,57.38
2024-03-03T22:50:12.784Z,58.33
2024-03-03T22:52:39.662Z,58.59
2024-03-03T22:55:07.146Z,58.85
2024-03-03T22:57:34.275Z,59.21
2024-03-03T23:00:01.041Z,59.30
2024-03-03T23:02:27.842Z,59.20
2024-03-03T23:04:55.810Z,59.93
2024-03-03T23:07:22.815Z,59.59
2024-03-03T23:09:49.553Z,59.82
2024-03-03T23:12:16.306Z,59.88
2024-03-03T23:14:43.098Z,60.65
2024-03-03T23:17:09.871Z,60.30
2024-03-03T23:19:36.774Z,61.03
2024-03-03T23:22:04.020Z,61.66
2024-03-03T23:24:30.763Z,61.31
2024-03-03T23:26:57.657Z,61.23
2024-03-03T23:29:24.362Z,61.48
2024-03-03T23:31:51.086Z,62.41
2024-03-03T23:34:17.880Z,62.53
2024-03-03T23:36:46.365Z,63.52
2024-03-03T23:39:13.313Z,63.35
2024-03-03T23:41:40.946Z,63.42
2024-03-03T23:44:07.667Z,63.14
2024-03-03T23:46:34.528Z,63.44
2024-03-03T23:49:01.407Z,63.17
2024-03-03T23:51:28.240Z,64.10
2024-03-03T23:53:55.029Z,64.06
2024-03-03T23:56:22.100Z,64.57
2024-03-03T23:58:50.261Z,64.27
